Time;durP1;ratioP1;P1;durP2;ratioP2;P2;SDS_P1;SDS_P2;PMS_P1;PMS_P2;Temp;Humidity;BMP_temperature;BMP_pressure;BME280_temperature;BME280_humidity;BME280_pressure;Samples;Min_cycle;Max_cycle;Signal;HPM_P1;HPM_P2
2023/10/06 00:01:44;;;;;;;29.38;17.10;;;23.40;50.60;;;;;;5002476;28;20030;-63
2023/10/06 00:04:15;;;;;;;29.67;16.13;;;23.40;50.10;;;;;;5000862;28;20034;-62
2023/10/06 00:06:41;;;;;;;27.60;15.68;;;23.40;50.10;;;;;;5002531;28;20026;-64
2023/10/06 00:09:09;;;;;;;26.95;15.55;;;23.40;50.10;;;;;;4999478;28;20034;-61
2023/10/06 00:11:40;;;;;;;29.15;16.15;;;23.40;50.10;;;;;;5001137;28;20574;-62
2023/10/06 00:14:07;;;;;;;28.17;16.40;;;23.40;50.10;;;;;;5001232;28;20026;-61
2023/10/06 00:16:39;;;;;;;27.33;15.48;;;23.40;50.10;;;;;;5001259;28;20099;-61
2023/10/06 00:19:32;;;;;;;25.65;14.57;;;23.40;50.10;;;;;;5000745;28;20105;-61
2023/10/06 00:24:42;;;;;;;27.33;14.50;;;23.40;50.10;;;;;;5001797;28;20489;-62
2023/10/06 00:27:11;;;;;;;26.00;15.30;;;23.40;50.10;;;;;;5002331;28;20117;-62
2023/10/06 00:29:48;;;;;;;25.35;14.68;;;23.30;50.10;;;;;;5002326;28;20492;-63
2023/10/06 00:32:25;;;;;;;25.10;14.95;;;23.40;50.10;;;;;;5002348;28;20022;-62
2023/10/06 00:34:54;;;;;;;25.35;14.65;;;23.30;50.10;;;;;;5000639;28;20540;-62
2023/10/06 00:37:23;;;;;;;24.65;14.10;;;23.30;50.10;;;;;;4998492;28;20032;-62
2023/10/06 00:39:50;;;;;;;23.30;13.45;;;23.30;50.10;;;;;;4997926;28;20034;-62
2023/10/06 00:42:18;;;;;;;22.63;13.48;;;23.30;50.10;;;;;;4999594;28;20026;-63
2023/10/06 00:44:47;;;;;;;20.45;12.68;;;23.30;50.10;;;;;;4997332;28;20022;-61
2023/10/06 00:47:13;;;;;;;21.50;13.27;;;23.30;50.10;;;;;;5001314;28;20483;-62
2023/10/06 00:49:40;;;;;;;21.92;12.77;;;23.30;50.10;;;;;;5000395;28;20049;-62
2023/10/06 00:52:07;;;;;;;22.42;13.30;;;23.30;50.20;;;;;;5000862;28;20563;-62
2023/10/06 00:54:34;;;;;;;21.67;12.77;;;23.20;50.10;;;;;;4999816;28;20446;-62
2023/10/06 00:57:08;;;;;;;20.75;12.38;;;23.30;50.20;;;;;;5000381;28;20097;-61
2023/10/06 00:59:35;;;;;;;22.40;12.93;;;23.30;50.20;;;;;;4998984;28;20046;-61
2023/10/06 01:02:01;;;;;;;20.88;12.00;;;23.30;50.20;;;;;;5001134;28;20260;-62
2023/10/06 01:04:34;;;;;;;20.50;12.15;;;23.20;50.10;;;;;;4996935;28;20470;-62
2023/10/06 01:07:00;;;;;;;18.58;11.60;;;23.20;50.10;;;;;;5001366;28;20030;-63
2023/10/06 01:09:35;;;;;;;22.23;12.02;;;23.20;50.20;;;;;;5000884;28;20156;-61
2023/10/06 01:12:05;;;;;;;20.00;11.98;;;23.20;50.10;;;;;;4999163;28;20045;-65
2023/10/06 01:14:34;;;;;;;19.58;11.60;;;23.20;50.20;;;;;;5000237;28;20084;-66
2023/10/06 01:17:18;;;;;;;20.58;12.40;;;23.20;50.20;;;;;;4998423;28;20112;-66
2023/10/06 01:19:47;;;;;;;21.27;11.25;;;23.20;50.20;;;;;;4998822;28;20034;-66
2023/10/06 01:22:30;;;;;;;17.98;11.82;;;23.20;50.20;;;;;;4999988;28;20078;-66
2023/10/06 01:24:58;;;;;;;19.35;11.15;;;23.20;50.20;;;;;;5000277;28;20612;-66
2023/10/06 01:27:27;;;;;;;20.35;11.50;;;23.20;50.30;;;;;;4999299;28;20478;-66
2023/10/06 01:30:17;;;;;;;19.67;10.73;;;23.20;50.20;;;;;;4996931;28;20049;-65
2023/10/06 01:32:46;;;;;;;18.63;11.45;;;23.10;50.20;;;;;;5000258;28;20033;-66
2023/10/06 01:35:13;;;;;;;18.67;10.27;;;23.10;50.20;;;;;;4999594;28;20474;-66
2023/10/06 01:37:45;;;;;;;18.40;10.88;;;23.10;50.20;;;;;;4999529;28;20034;-66
2023/10/06 01:42:55;;;;;;;17.65;10.52;;;23.10;50.20;;;;;;4998886;28;20124;-65
2023/10/06 01:45:22;;;;;;;16.75;10.30;;;23.10;50.20;;;;;;4995421;28;20030;-65
2023/10/06 01:48:22;;;;;;;15.77;9.73;;;23.10;50.20;;;;;;4999992;28;20440;-65
2023/10/06 01:50:43;;;;;;;15.70;9.70;;;23.10;50.20;;;;;;5000263;28;20056;-66
2023/10/06 01:53:11;;;;;;;16.30;9.88;;;23.10;50.20;;;;;;4999496;28;20485;-65
2023/10/06 01:55:39;;;;;;;15.32;9.32;;;23.10;50.30;;;;;;5000309;28;20038;-65
2023/10/06 01:58:07;;;;;;;16.23;9.10;;;23.10;50.30;;;;;;4998792;28;20030;-65
2023/10/06 02:00:34;;;;;;;14.80;9.30;;;23.10;50.30;;;;;;4998287;28;20473;-67
2023/10/06 02:03:04;;;;;;;15.40;9.23;;;23.00;50.20;;;;;;4997458;28;20018;-64
2023/10/06 02:05:29;;;;;;;15.50;9.10;;;23.00;50.20;;;;;;5000523;28;20022;-66
2023/10/06 02:08:02;;;;;;;15.73;9.43;;;23.00;50.30;;;;;;5000220;28;20083;-66
2023/10/06 02:10:28;;;;;;;13.05;8.70;;;23.00;50.30;;;;;;4997237;28;20799;-66
2023/10/06 02:12:53;;;;;;;15.88;9.77;;;23.00;50.30;;;;;;4999490;28;20030;-66
2023/10/06 02:15:19;;;;;;;13.05;8.40;;;23.00;50.30;;;;;;4999697;28;20018;-66
2023/10/06 02:17:44;;;;;;;13.73;8.63;;;23.00;50.30;;;;;;5006972;28;20025;-66
2023/10/06 02:23:05;;;;;;;17.13;9.43;;;23.00;50.30;;;;;;5003989;28;20042;-66
2023/10/06 02:25:31;;;;;;;13.35;8.82;;;23.00;50.30;;;;;;5004863;28;20057;-66
2023/10/06 02:27:59;;;;;;;13.10;8.43;;;23.00;50.30;;;;;;5004953;28;20505;-67
2023/10/06 02:30:33;;;;;;;13.55;8.55;;;22.90;50.30;;;;;;5004793;28;20036;-65
2023/10/06 02:33:05;;;;;;;12.98;8.18;;;22.90;50.30;;;;;;5003421;28;20494;-65
2023/10/06 02:35:31;;;;;;;12.18;7.97;;;22.90;50.30;;;;;;5004462;28;20132;-65
2023/10/06 02:37:58;;;;;;;14.07;8.57;;;22.90;50.30;;;;;;5004967;28;20029;-65
2023/10/06 02:40:37;;;;;;;13.65;8.65;;;22.90;50.30;;;;;;5004691;28;20061;-65
2023/10/06 02:43:09;;;;;;;12.80;8.38;;;22.90;50.30;;;;;;5003928;28;20076;-66
2023/10/06 02:45:40;;;;;;;12.80;8.07;;;22.90;50.30;;;;;;5003274;28;20026;-65
2023/10/06 02:48:14;;;;;;;12.60;7.78;;;22.90;50.30;;;;;;5005049;28;20037;-66
2023/10/06 02:50:46;;;;;;;12.63;7.97;;;22.90;50.40;;;;;;5002430;28;20030;-66
2023/10/06 02:53:20;;;;;;;14.45;8.25;;;22.90;50.40;;;;;;5005506;28;20022;-65
2023/10/06 02:55:48;;;;;;;12.20;7.85;;;22.80;50.80;;;;;;5005746;28;20032;-66
2023/10/06 02:58:26;;;;;;;11.45;7.47;;;22.80;50.30;;;;;;5005078;28;20046;-66
2023/10/06 03:00:52;;;;;;;10.75;7.32;;;22.80;50.30;;;;;;5004268;28;20044;-65
2023/10/06 03:03:26;;;;;;;11.05;7.00;;;22.90;50.30;;;;;;5003650;28;20034;-66
2023/10/06 03:05:55;;;;;;;13.70;7.93;;;22.80;50.30;;;;;;5005306;28;20414;-66
2023/10/06 03:08:22;;;;;;;12.60;7.15;;;22.80;50.30;;;;;;5011180;28;20026;-66
2023/10/06 03:10:48;;;;;;;12.68;7.82;;;22.80;50.30;;;;;;5005855;28;20041;-66
2023/10/06 03:13:32;;;;;;;10.70;7.18;;;22.80;50.30;;;;;;5008090;28;20368;-66
2023/10/06 03:16:01;;;;;;;11.18;7.05;;;22.80;50.40;;;;;;5003108;28;20022;-68
2023/10/06 03:18:28;;;;;;;11.48;7.20;;;22.80;50.40;;;;;;5002694;28;20022;-66
2023/10/06 03:21:01;;;;;;;9.63;6.47;;;22.80;50.40;;;;;;5006218;28;20065;-65
2023/10/06 03:23:56;;;;;;;10.80;6.65;;;22.80;50.40;;;;;;5004684;28;20026;-66
2023/10/06 03:26:19;;;;;;;11.95;7.43;;;22.70;50.30;;;;;;5002368;28;20504;-67
2023/10/06 03:28:49;;;;;;;11.07;7.57;;;22.80;50.40;;;;;;5000962;28;20087;-67
2023/10/06 03:33:54;;;;;;;10.45;6.78;;;22.70;50.40;;;;;;5000254;28;20030;-62
2023/10/06 03:36:37;;;;;;;10.10;6.72;;;22.80;50.50;;;;;;5000551;28;20021;-60
2023/10/06 03:39:09;;;;;;;9.15;6.30;;;22.70;50.40;;;;;;5001901;28;20470;-61
2023/10/06 03:41:37;;;;;;;10.27;6.65;;;22.70;50.40;;;;;;5002363;28;20513;-63
2023/10/06 03:44:04;;;;;;;9.80;6.30;;;22.70;50.40;;;;;;5010214;28;20390;-61
2023/10/06 03:46:37;;;;;;;10.18;6.20;;;22.70;50.40;;;;;;5000964;28;20049;-61
2023/10/06 03:49:13;;;;;;;9.85;6.68;;;22.70;50.40;;;;;;5000315;28;20037;-62
2023/10/06 03:51:39;;;;;;;10.18;6.78;;;22.70;50.40;;;;;;5003204;28;20030;-62
2023/10/06 03:54:05;;;;;;;9.95;6.15;;;22.70;50.40;;;;;;5001162;28;20406;-61
2023/10/06 03:56:32;;;;;;;9.77;6.32;;;22.70;50.40;;;;;;5000001;28;20021;-61
2023/10/06 03:58:59;;;;;;;9.75;6.35;;;22.70;50.50;;;;;;5000680;28;20091;-60
2023/10/06 04:01:31;;;;;;;10.88;6.75;;;22.70;50.40;;;;;;5000033;28;20450;-62
2023/10/06 04:03:59;;;;;;;8.63;5.68;;;22.60;50.40;;;;;;5003021;28;20422;-63
2023/10/06 04:06:26;;;;;;;10.45;6.25;;;22.70;50.50;;;;;;5003101;28;20049;-62
2023/10/06 04:08:57;;;;;;;9.65;5.97;;;22.60;50.50;;;;;;4999612;28;20042;-61
2023/10/06 04:11:22;;;;;;;10.02;6.00;;;22.60;50.50;;;;;;5002265;28;20058;-61
2023/10/06 04:13:48;;;;;;;7.88;5.47;;;22.60;50.50;;;;;;5000332;28;20061;-61
2023/10/06 04:16:14;;;;;;;8.48;5.63;;;22.60;50.50;;;;;;4999937;28;20022;-63
2023/10/06 04:18:41;;;;;;;10.88;6.15;;;22.60;51.00;;;;;;5000553;28;20643;-61
2023/10/06 04:21:11;;;;;;;9.60;5.70;;;22.60;50.60;;;;;;5001723;28;20022;-60
2023/10/06 04:23:41;;;;;;;8.55;5.47;;;22.60;50.50;;;;;;5001065;28;20033;-63
2023/10/06 04:26:09;;;;;;;7.70;5.18;;;22.60;50.60;;;;;;4999520;28;20019;-64
2023/10/06 04:28:36;;;;;;;8.32;5.40;;;22.60;50.60;;;;;;4999444;28;20022;-63
2023/10/06 04:31:02;;;;;;;8.02;5.00;;;22.60;50.60;;;;;;4998181;28;20783;-63
2023/10/06 04:33:28;;;;;;;8.90;5.25;;;22.60;50.60;;;;;;4998954;28;20026;-63
2023/10/06 04:35:59;;;;;;;8.85;5.35;;;22.60;50.60;;;;;;4998670;28;20030;-63
2023/10/06 04:38:29;;;;;;;7.45;4.97;;;22.60;50.60;;;;;;5000523;28;20418;-63
2023/10/06 04:40:56;;;;;;;7.95;5.38;;;22.60;51.20;;;;;;5001032;28;20377;-63
2023/10/06 04:43:23;;;;;;;7.65;5.03;;;22.60;50.70;;;;;;4999465;28;20394;-63
2023/10/06 04:45:50;;;;;;;8.82;5.25;;;22.50;50.60;;;;;;5000416;28;20018;-61
2023/10/06 04:48:18;;;;;;;6.97;4.70;;;22.50;50.60;;;;;;5006474;28;20037;-62
2023/10/06 04:50:44;;;;;;;7.65;4.95;;;22.50;50.60;;;;;;4999131;28;20042;-61
2023/10/06 04:53:11;;;;;;;7.40;4.90;;;22.50;50.70;;;;;;5015127;28;20033;-62
2023/10/06 04:55:38;;;;;;;7.30;4.97;;;22.50;50.70;;;;;;4997406;28;20390;-61
2023/10/06 04:58:13;;;;;;;8.57;5.30;;;22.50;50.70;;;;;;4999414;28;20027;-61
2023/10/06 05:00:40;;;;;;;9.02;5.20;;;22.50;50.70;;;;;;5000823;28;20031;-62
2023/10/06 05:03:06;;;;;;;7.95;5.13;;;22.50;50.70;;;;;;4997151;28;20027;-61
2023/10/06 05:05:37;;;;;;;7.47;4.60;;;22.50;50.70;;;;;;4998560;28;20038;-61
2023/10/06 05:08:14;;;;;;;7.22;4.70;;;22.50;50.70;;;;;;4998510;28;20033;-60
2023/10/06 05:10:40;;;;;;;8.25;5.40;;;22.50;50.80;;;;;;5002063;28;20076;-60
2023/10/06 05:13:07;;;;;;;9.57;6.18;;;22.50;51.10;;;;;;5000663;28;20080;-61
2023/10/06 05:15:34;;;;;;;10.02;5.97;;;22.60;51.00;;;;;;5001067;28;20030;-63
2023/10/06 05:18:02;;;;;;;9.40;5.70;;;22.60;51.00;;;;;;4998925;28;20541;-62
2023/10/06 05:20:30;;;;;;;8.70;5.80;;;22.60;50.80;;;;;;5000409;28;20191;-60
2023/10/06 05:23:09;;;;;;;8.73;5.40;;;22.70;50.80;;;;;;5000474;28;20473;-60
2023/10/06 05:25:47;;;;;;;8.73;6.10;;;22.70;50.80;;;;;;4999051;28;20042;-61
2023/10/06 05:28:16;;;;;;;7.82;5.50;;;22.70;50.70;;;;;;4998173;28;20033;-61
2023/10/06 05:30:43;;;;;;;8.77;5.75;;;22.80;50.70;;;;;;5007078;28;20022;-60
2023/10/06 05:33:09;;;;;;;8.75;5.95;;;22.80;50.50;;;;;;4998099;28;20537;-63
2023/10/06 05:35:38;;;;;;;9.20;5.60;;;22.90;50.50;;;;;;4997884;28;20053;-64
2023/10/06 05:38:08;;;;;;;9.38;5.75;;;22.90;50.20;;;;;;4998576;28;20382;-63
2023/10/06 05:40:34;;;;;;;10.05;5.70;;;23.00;50.10;;;;;;5000879;28;20103;-64
2023/10/06 05:43:00;;;;;;;9.18;5.30;;;23.00;50.10;;;;;;4999375;28;20620;-64
2023/10/06 05:45:29;;;;;;;6.93;4.70;;;23.10;50.10;;;;;;4998485;28;20030;-64
2023/10/06 05:47:58;;;;;;;7.68;5.10;;;23.20;50.10;;;;;;4998914;28;20030;-63
2023/10/06 05:50:27;;;;;;;7.00;4.80;;;23.20;49.90;;;;;;4999682;28;20154;-64
2023/10/06 05:53:07;;;;;;;9.43;5.97;;;23.30;49.80;;;;;;4998158;28;20046;-64
2023/10/06 05:55:38;;;;;;;7.35;5.13;;;23.40;49.70;;;;;;4998300;28;20034;-64
2023/10/06 05:58:09;;;;;;;8.77;5.20;;;23.50;49.50;;;;;;4998875;28;20023;-63
2023/10/06 06:00:46;;;;;;;9.65;5.15;;;23.60;49.40;;;;;;4999668;28;20104;-64
2023/10/06 06:03:13;;;;;;;8.45;5.40;;;23.70;49.20;;;;;;5004368;28;20121;-64
2023/10/06 06:05:40;;;;;;;8.77;5.63;;;23.80;49.10;;;;;;4998456;28;20038;-63
2023/10/06 06:08:09;;;;;;;7.43;5.40;;;23.90;48.80;;;;;;4999221;28;20733;-64
2023/10/06 06:10:40;;;;;;;8.40;4.95;;;24.00;48.50;;;;;;4998614;28;20028;-64
2023/10/06 06:13:05;;;;;;;6.72;4.72;;;24.00;48.40;;;;;;5000079;28;20034;-64
2023/10/06 06:15:32;;;;;;;7.55;4.50;;;24.10;48.20;;;;;;4999645;28;20446;-64
2023/10/06 06:18:00;;;;;;;8.18;4.85;;;24.10;48.10;;;;;;4998315;28;20018;-64
2023/10/06 06:20:27;;;;;;;7.80;5.13;;;24.20;48.10;;;;;;4999047;28;20065;-63
2023/10/06 06:22:59;;;;;;;7.03;4.50;;;24.20;48.00;;;;;;4998590;28;20494;-63
2023/10/06 06:25:29;;;;;;;6.65;4.57;;;24.30;48.00;;;;;;4999939;28;20022;-63
2023/10/06 06:27:59;;;;;;;7.32;4.85;;;24.30;48.00;;;;;;4997875;28;20026;-64
2023/10/06 06:30:25;;;;;;;7.53;4.97;;;24.30;47.80;;;;;;4999232;28;20036;-64
2023/10/06 06:32:52;;;;;;;7.60;4.40;;;24.40;48.00;;;;;;4997972;28;20117;-64
2023/10/06 06:35:19;;;;;;;6.35;4.28;;;24.40;47.70;;;;;;4998144;28;20029;-64
2023/10/06 06:37:59;;;;;;;7.40;4.47;;;24.40;47.70;;;;;;5000886;28;20026;-64
2023/10/06 06:40:26;;;;;;;7.05;4.63;;;24.50;47.60;;;;;;4997521;28;20091;-64
2023/10/06 06:42:52;;;;;;;5.97;4.40;;;24.50;47.50;;;;;;4999914;28;20427;-67
2023/10/06 06:45:24;;;;;;;6.68;4.55;;;24.60;47.50;;;;;;5000648;28;20026;-66
2023/10/06 06:47:52;;;;;;;7.70;4.70;;;24.60;47.40;;;;;;4996826;28;20483;-66
2023/10/06 06:50:19;;;;;;;7.18;4.72;;;24.60;47.30;;;;;;4998135;28;20386;-65
2023/10/06 06:52:46;;;;;;;6.40;4.30;;;24.70;47.20;;;;;;4999588;28;20050;-66
2023/10/06 06:55:13;;;;;;;5.57;4.10;;;24.70;47.20;;;;;;4997437;28;20030;-66
2023/10/06 06:57:48;;;;;;;6.88;4.68;;;24.80;47.20;;;;;;4998930;28;20045;-67
2023/10/06 07:00:17;;;;;;;6.25;4.25;;;24.80;47.60;;;;;;5000721;28;20021;-67
2023/10/06 07:02:44;;;;;;;6.30;4.22;;;24.80;47.10;;;;;;5001783;28;20036;-64
2023/10/06 07:05:13;;;;;;;5.60;3.80;;;24.80;47.00;;;;;;5000097;28;20034;-64
2023/10/06 07:07:42;;;;;;;6.03;4.05;;;24.90;46.90;;;;;;4999514;28;20466;-64
2023/10/06 07:10:13;;;;;;;6.15;4.03;;;24.90;46.80;;;;;;5002124;28;20386;-64
2023/10/06 07:12:42;;;;;;;7.90;4.30;;;25.00;46.90;;;;;;5001797;28;20106;-64
2023/10/06 07:15:15;;;;;;;6.00;3.88;;;25.00;46.70;;;;;;5000601;28;20022;-64
2023/10/06 07:17:42;;;;;;;7.32;4.43;;;24.90;46.60;;;;;;5000878;28;20038;-65
2023/10/06 07:20:13;;;;;;;5.78;4.22;;;24.90;46.50;;;;;;5001075;28;20585;-64
2023/10/06 07:22:38;;;;;;;6.53;3.97;;;24.90;46.50;;;;;;5004459;28;20444;-64
2023/10/06 07:25:04;;;;;;;5.57;4.10;;;24.90;46.60;;;;;;5016998;28;20034;-64
2023/10/06 07:27:34;;;;;;;5.50;3.83;;;24.90;46.70;;;;;;5001427;28;20072;-64
2023/10/06 07:30:03;;;;;;;;;;;24.90;46.60;;;;;;5000093;28;20049;-64
2023/10/06 07:32:29;;;;;;;6.13;3.65;;;24.80;46.70;;;;;;5000705;28;19909;-63
2023/10/06 07:34:54;;;;;;;5.38;3.88;;;24.80;46.70;;;;;;5000774;28;20030;-64
2023/10/06 07:37:21;;;;;;;5.53;3.70;;;24.80;46.80;;;;;;4999444;28;20034;-64
2023/10/06 07:39:47;;;;;;;6.18;3.97;;;24.80;46.80;;;;;;5001944;28;20120;-64
2023/10/06 07:42:16;;;;;;;5.25;4.03;;;24.80;46.90;;;;;;5001967;28;20140;-64
2023/10/06 07:44:43;;;;;;;5.45;3.80;;;24.70;46.90;;;;;;5000355;28;20034;-64
2023/10/06 07:47:08;;;;;;;5.95;3.92;;;24.70;46.90;;;;;;5000394;28;20493;-64
2023/10/06 07:49:40;;;;;;;5.53;3.70;;;24.70;46.90;;;;;;4999632;28;20030;-64
2023/10/06 07:52:07;;;;;;;5.72;3.90;;;24.70;47.10;;;;;;5000127;28;20443;-63
2023/10/06 07:54:32;;;;;;;4.95;3.40;;;24.70;46.90;;;;;;5002808;28;20049;-62
2023/10/06 07:56:58;;;;;;;6.20;4.30;;;24.60;46.90;;;;;;5001526;28;20175;-62
2023/10/06 07:59:25;;;;;;;4.93;3.40;;;24.70;46.90;;;;;;5000396;28;20831;-61
2023/10/06 08:01:51;;;;;;;6.18;3.70;;;24.60;46.80;;;;;;5001846;28;20110;-62
2023/10/06 08:04:17;;;;;;;7.45;3.80;;;24.60;46.90;;;;;;5001202;28;20507;-62
2023/10/06 08:06:45;;;;;;;6.07;3.47;;;24.60;46.90;;;;;;5001592;28;20548;-61
2023/10/06 08:09:11;;;;;;;5.05;3.80;;;24.60;46.90;;;;;;5002611;28;20494;-62
2023/10/06 08:11:39;;;;;;;4.82;3.35;;;24.50;46.90;;;;;;5002088;28;20033;-61
2023/10/06 08:14:05;;;;;;;4.80;3.22;;;24.50;46.90;;;;;;5000868;28;20395;-66
2023/10/06 08:16:33;;;;;;;6.55;3.63;;;24.50;46.90;;;;;;4999699;28;20018;-67
2023/10/06 08:18:59;;;;;;;5.05;3.50;;;24.50;47.00;;;;;;4999452;28;20038;-66
2023/10/06 08:21:25;;;;;;;5.97;3.95;;;24.50;47.50;;;;;;5000698;28;20030;-66
2023/10/06 08:23:51;;;;;;;5.68;3.67;;;24.50;47.00;;;;;;5001648;28;20159;-66
2023/10/06 08:26:16;;;;;;;4.65;3.17;;;24.40;47.10;;;;;;5002053;28;20034;-67
2023/10/06 08:28:42;;;;;;;4.22;3.15;;;24.40;47.10;;;;;;5001867;28;20061;-66
2023/10/06 08:31:17;;;;;;;5.32;3.42;;;24.40;47.10;;;;;;5001636;28;20593;-67
2023/10/06 08:33:45;;;;;;;5.53;3.28;;;24.40;47.20;;;;;;5000269;28;20084;-67
2023/10/06 08:36:10;;;;;;;4.72;3.22;;;24.40;47.20;;;;;;5000582;28;20033;-66
2023/10/06 08:38:37;;;;;;;4.55;3.22;;;24.30;47.20;;;;;;5001146;28;20023;-66
2023/10/06 08:41:04;;;;;;;4.82;3.63;;;24.30;47.20;;;;;;5002349;28;20030;-66
2023/10/06 08:43:30;;;;;;;5.90;3.25;;;24.30;47.30;;;;;;5000308;28;20502;-67
2023/10/06 08:45:59;;;;;;;4.43;3.17;;;24.30;47.30;;;;;;5000240;28;20061;-67
2023/10/06 08:48:35;;;;;;;4.70;3.00;;;24.30;47.30;;;;;;4999344;28;20046;-67
2023/10/06 08:51:07;;;;;;;4.72;3.03;;;24.30;47.30;;;;;;4999744;28;20486;-67
2023/10/06 08:53:35;;;;;;;4.32;2.88;;;24.30;47.30;;;;;;5000865;28;20022;-66
2023/10/06 08:56:01;;;;;;;4.65;3.20;;;24.30;47.40;;;;;;4998233;28;20065;-67
2023/10/06 08:58:26;;;;;;;4.57;3.22;;;24.30;47.40;;;;;;4998039;28;20060;-67
2023/10/06 09:00:53;;;;;;;4.53;3.00;;;24.30;47.50;;;;;;4997962;28;20829;-66
2023/10/06 09:03:20;;;;;;;5.18;3.20;;;24.20;47.40;;;;;;4998179;28;20033;-65
2023/10/06 09:05:46;;;;;;;6.15;3.50;;;24.30;47.50;;;;;;4999351;28;20437;-65
2023/10/06 09:08:15;;;;;;;4.32;3.05;;;24.20;47.40;;;;;;5000464;28;20125;-65
2023/10/06 09:10:48;;;;;;;4.50;3.03;;;24.20;47.50;;;;;;4999188;28;20049;-65
2023/10/06 09:13:17;;;;;;;4.88;2.80;;;24.20;47.60;;;;;;5015335;28;20022;-65
2023/10/06 09:15:44;;;;;;;4.25;2.65;;;24.20;47.60;;;;;;5001256;28;20025;-65
2023/10/06 09:18:20;;;;;;;4.40;2.97;;;24.20;47.60;;;;;;5000672;28;20036;-65
2023/10/06 09:20:50;;;;;;;4.25;2.80;;;24.20;47.60;;;;;;5003424;28;20021;-64
2023/10/06 09:23:29;;;;;;;;;;;24.20;47.60;;;;;;5001546;28;20383;-65
2023/10/06 09:25:55;;;;;;;4.95;2.88;;;24.20;47.60;;;;;;5000213;28;19910;-64
2023/10/06 09:28:21;;;;;;;3.70;2.67;;;24.20;47.60;;;;;;5000450;28;20058;-65
2023/10/06 09:31:00;;;;;;;3.78;2.35;;;24.20;47.50;;;;;;4999244;28;20426;-65
2023/10/06 09:33:28;;;;;;;4.35;3.03;;;24.20;47.60;;;;;;4998834;28;20125;-65
2023/10/06 09:36:07;;;;;;;4.93;2.70;;;24.20;47.50;;;;;;4997871;28;20062;-65
2023/10/06 09:38:33;;;;;;;4.90;3.03;;;24.10;47.50;;;;;;5000315;28;20046;-64
2023/10/06 09:40:59;;;;;;;4.40;2.90;;;24.10;47.60;;;;;;4998035;28;20038;-65
2023/10/06 09:43:25;;;;;;;4.40;2.80;;;24.10;47.60;;;;;;5000206;28;20022;-64
2023/10/06 09:45:51;;;;;;;4.40;3.00;;;24.20;47.60;;;;;;4997275;28;20030;-64
2023/10/06 09:48:24;;;;;;;4.10;2.60;;;24.10;47.60;;;;;;4997905;28;20022;-65
2023/10/06 09:50:54;;;;;;;4.63;2.70;;;24.10;47.60;;;;;;5000461;28;20038;-64
2023/10/06 09:53:20;;;;;;;4.28;2.83;;;24.10;47.70;;;;;;4998780;28;20505;-65
2023/10/06 09:55:49;;;;;;;4.63;3.20;;;24.10;47.80;;;;;;4997209;28;20358;-65
2023/10/06 09:58:18;;;;;;;4.03;3.20;;;24.10;47.90;;;;;;4999406;28;20338;-64
2023/10/06 10:00:44;;;;;;;4.05;2.70;;;24.10;48.00;;;;;;5000565;28;20520;-65
2023/10/06 10:03:13;;;;;;;3.88;2.80;;;24.10;48.50;;;;;;4999936;28;20483;-65
2023/10/06 10:05:39;;;;;;;4.32;2.92;;;24.10;47.90;;;;;;4995923;28;20528;-65
2023/10/06 10:08:08;;;;;;;3.88;2.55;;;24.10;47.90;;;;;;4999162;28;20035;-64
2023/10/06 10:10:38;;;;;;;4.22;2.58;;;24.10;48.00;;;;;;4997377;28;20513;-65
2023/10/06 10:13:34;;;;;;;4.72;2.88;;;24.00;47.90;;;;;;4997349;28;20093;-63
2023/10/06 10:16:25;;;;;;;3.97;2.80;;;24.00;47.90;;;;;;5000823;28;20027;-62
2023/10/06 10:19:00;;;;;;;3.80;2.58;;;24.00;47.90;;;;;;4998582;28;20018;-63
2023/10/06 10:21:26;;;;;;;3.78;2.53;;;24.00;47.90;;;;;;4997930;28;20076;-62
2023/10/06 10:23:56;;;;;;;4.18;2.88;;;24.00;47.90;;;;;;5005175;28;20435;-61
2023/10/06 10:26:22;;;;;;;;;;;24.00;47.90;;;;;;4999528;28;20442;-61
2023/10/06 10:29:12;;;;;;;3.92;2.55;;;24.00;48.00;;;;;;4999038;28;19909;-61
2023/10/06 10:31:42;;;;;;;4.97;2.92;;;24.00;48.00;;;;;;4998007;28;20030;-61
2023/10/06 10:34:25;;;;;;;4.88;2.80;;;24.00;47.90;;;;;;4997900;28;20022;-64
2023/10/06 10:36:53;;;;;;;3.70;2.50;;;24.00;48.00;;;;;;5000748;28;20539;-63
2023/10/06 10:39:19;;;;;;;3.88;2.50;;;23.90;47.90;;;;;;5001090;28;20034;-64
2023/10/06 10:41:46;;;;;;;4.63;2.60;;;23.90;48.50;;;;;;5002748;28;20033;-64
2023/10/06 10:44:14;;;;;;;4.13;2.42;;;23.90;48.00;;;;;;5001179;28;20034;-64
2023/10/06 10:47:02;;;;;;;3.83;2.50;;;23.90;48.00;;;;;;5004131;28;20433;-63
2023/10/06 10:49:32;;;;;;;4.00;2.38;;;23.90;48.10;;;;;;5001836;28;20040;-64
2023/10/06 10:52:06;;;;;;;3.58;2.40;;;23.90;48.10;;;;;;5000666;28;20026;-64
2023/10/06 10:54:33;;;;;;;3.55;2.50;;;23.80;48.10;;;;;;5001945;28;20037;-64
2023/10/06 10:57:09;;;;;;;3.88;2.47;;;23.80;48.10;;;;;;5002797;28;20111;-63
2023/10/06 11:00:00;;;;;;;4.13;2.53;;;23.80;48.10;;;;;;5001889;28;20030;-63
2023/10/06 11:02:57;;;;;;;3.53;2.47;;;23.80;48.20;;;;;;5001208;28;20034;-64
2023/10/06 11:05:23;;;;;;;3.40;2.38;;;23.80;48.20;;;;;;4995155;28;20090;-63
2023/10/06 11:08:00;;;;;;;3.95;2.58;;;23.70;48.10;;;;;;5003788;28;20494;-63
2023/10/06 11:10:26;;;;;;;3.45;2.40;;;23.70;48.20;;;;;;5000807;28;20496;-63
2023/10/06 11:13:15;;;;;;;3.70;2.33;;;23.70;48.20;;;;;;5003581;28;20019;-64
2023/10/06 11:15:42;;;;;;;3.55;2.38;;;23.70;48.30;;;;;;5003284;28;20022;-64
2023/10/06 11:18:09;;;;;;;3.75;2.03;;;23.70;48.90;;;;;;5002483;28;20618;-64
2023/10/06 11:20:39;;;;;;;3.88;2.63;;;23.70;48.40;;;;;;5000335;28;20129;-64
2023/10/06 11:23:06;;;;;;;3.03;2.20;;;23.70;48.50;;;;;;5000137;28;20026;-62
2023/10/06 11:25:35;;;;;;;4.05;2.65;;;23.70;48.60;;;;;;5002165;28;20105;-62
2023/10/06 11:28:08;;;;;;;3.28;2.13;;;23.60;48.60;;;;;;5000383;28;20022;-61
2023/10/06 11:30:39;;;;;;;3.33;2.17;;;23.70;48.70;;;;;;5008100;28;20049;-62
2023/10/06 11:33:08;;;;;;;3.22;2.22;;;23.60;48.80;;;;;;5002289;28;20054;-63
2023/10/06 11:35:34;;;;;;;4.65;2.58;;;23.70;48.80;;;;;;5001704;28;20061;-61
2023/10/06 11:38:04;;;;;;;3.42;2.25;;;23.60;48.70;;;;;;5008856;28;20124;-60
2023/10/06 11:40:31;;;;;;;4.25;2.60;;;23.60;48.70;;;;;;5001708;28;20026;-61
2023/10/06 11:43:09;;;;;;;3.53;2.25;;;23.60;48.80;;;;;;5000637;28;20481;-65
2023/10/06 11:45:36;;;;;;;3.92;2.30;;;23.60;48.80;;;;;;5001089;28;20520;-61
2023/10/06 11:48:02;;;;;;;3.25;2.20;;;23.60;48.70;;;;;;5002319;28;20130;-62
2023/10/06 11:50:32;;;;;;;4.60;2.33;;;23.60;48.80;;;;;;4998458;28;20122;-62
2023/10/06 11:53:01;;;;;;;4.63;2.15;;;23.60;48.80;;;;;;5001352;28;20049;-62
2023/10/06 11:55:31;;;;;;;3.47;2.30;;;23.60;48.90;;;;;;5001346;28;20537;-62
2023/10/06 11:58:00;;;;;;;3.45;2.25;;;23.60;48.90;;;;;;5002187;28;20101;-63
2023/10/06 12:00:45;;;;;;;3.65;2.28;;;23.60;48.90;;;;;;5001573;28;20393;-62
2023/10/06 12:03:11;;;;;;;8.15;5.50;;;23.60;48.90;;;;;;5000728;28;20490;-61
2023/10/06 12:05:41;;;;;;;11.75;8.00;;;23.60;49.00;;;;;;4999751;28;20113;-63
2023/10/06 12:08:12;;;;;;;14.02;11.27;;;23.50;49.00;;;;;;5002645;28;20052;-62
2023/10/06 12:10:50;;;;;;;19.92;15.95;;;23.50;49.00;;;;;;4999691;28;20029;-62
2023/10/06 12:13:17;;;;;;;35.97;28.55;;;23.50;49.00;;;;;;5000160;28;20046;-62
2023/10/06 12:15:46;;;;;;;50.15;40.42;;;23.50;49.10;;;;;;5001285;28;20036;-62
2023/10/06 12:18:16;;;;;;;57.85;44.83;;;23.50;49.20;;;;;;4998150;28;20064;-64
2023/10/06 12:20:41;;;;;;;55.72;43.83;;;23.50;49.20;;;;;;4998626;28;20549;-62
2023/10/06 12:23:07;;;;;;;54.10;42.55;;;23.50;49.20;;;;;;5002063;28;20149;-62
2023/10/06 12:25:33;;;;;;;53.33;40.25;;;23.50;49.20;;;;;;5001598;28;20045;-61
2023/10/06 12:28:00;;;;;;;52.30;40.97;;;23.50;49.20;;;;;;5003081;28;20033;-60
2023/10/06 12:30:28;;;;;;;50.33;40.55;;;23.50;49.20;;;;;;5001271;28;20029;-62
2023/10/06 12:32:54;;;;;;;50.72;40.70;;;23.50;49.30;;;;;;5001402;28;20065;-67
2023/10/06 12:35:21;;;;;;;55.63;43.58;;;23.50;49.30;;;;;;4999152;28;20109;-61
2023/10/06 12:37:47;;;;;;;57.38;44.55;;;23.50;49.30;;;;;;5001117;28;20018;-63
2023/10/06 12:40:15;;;;;;;57.63;44.83;;;23.50;49.30;;;;;;4999561;28;20037;-63
2023/10/06 12:42:45;;;;;;;55.35;44.72;;;23.40;49.30;;;;;;4999582;28;20026;-62
2023/10/06 12:45:17;;;;;;;58.28;46.55;;;23.40;49.30;;;;;;4997918;28;20026;-62
2023/10/06 12:47:47;;;;;;;57.58;44.80;;;23.40;49.40;;;;;;5000505;28;20130;-62
2023/10/06 12:50:17;;;;;;;57.92;46.67;;;23.50;49.50;;;;;;4998054;28;20038;-61
2023/10/06 12:52:54;;;;;;;58.85;47.08;;;23.40;49.40;;;;;;5000700;28;20481;-62
2023/10/06 12:55:21;;;;;;;57.25;45.05;;;23.40;49.50;;;;;;5001229;28;20025;-68
2023/10/06 12:57:49;;;;;;;58.58;44.63;;;23.40;49.50;;;;;;4999428;28;20022;-69
2023/10/06 13:00:15;;;;;;;52.33;42.35;;;23.40;49.50;;;;;;4999429;28;20386;-68
2023/10/06 13:02:41;;;;;;;57.72;44.53;;;23.40;49.50;;;;;;5000934;28;20030;-68
2023/10/06 13:05:16;;;;;;;58.65;44.40;;;23.40;49.50;;;;;;4996362;28;20022;-68